Portada
METAR-TAF:

METAR-TAF

Aeropuertos :

Haines, Alaska, Estados Unidos

latitud: 59-15N, longitud: 135-31W, altitud: 5 m

Observación

El informe se hizo hace 57 minutos, a las 17:54 UTC
Viento 13 kt del noroeste con ráfagas de 17 kt
Temperatura -2°C
Humedad 69%
Presión 1003 hPa
Visibilidad: 8.0 km
Nubes dispersas a una altura de 5500 ft
calima

METAR: PAHN 201754Z AUTO 32013G17KT 5SM HZ SCT055 M02/M07 A2963 RMK AO2 SLP036 T10171072 11011 21022 51007 TSNO

Hora: 09:51 (18:51 UTC)

Pronóstico

El informe se hizo hace 1 hora y 31 minutos, a las 17:20 UTC
Pronóstico válido del 20 a las 18 UTC al 21 a las 18 UTC
Viento 10 kt del oeste-noroeste con ráfagas de 17 kt
Visibilidad: 9.7 km
Cielo nuboso a una altura de 7000 ft
Ventisca alta de polvo

TAF: PAHN 201720Z 2018/2118 30010G17KT 6SM BLDU BKN070 AMD LTD TO CLD VIS AND WIND

Observaciones y pronósticos meteorológicos de más de 4000 aeropuertos (mensajes METAR y TAF).

Los puntos amarillos y rojos representan las estaciones disponibles.

Ponga el ratón en el punto deseado para ver el nombre de la estación.

Haga clic para ver las observaciones y los pronósticos meteorológicos.

Para cambiar el mapa : haga clic en los botones verdes con una cruz de color negro para hacer un zoom, en el botón verde con un guión para alejar o en las flechas verdes para mapas adyacentes.


METAR-TAF: